Time;durP1;ratioP1;P1;durP2;ratioP2;P2;SDS_P1;SDS_P2;PMS_P1;PMS_P2;Temp;Humidity;BMP_temperature;BMP_pressure;BME280_temperature;BME280_humidity;BME280_pressure;Samples;Min_cycle;Max_cycle;Signal;HPM_P1;HPM_P2
2022/01/13 00:00:12;;;;;;;31.87;15.93;;;;;;;7.43;85.43;103282.53;5076472;28;20481;-62
2022/01/13 00:02:38;;;;;;;34.23;18.50;;;;;;;7.83;83.66;103273.72;5077885;28;20291;-61
2022/01/13 00:05:04;;;;;;;38.80;20.00;;;;;;;7.83;79.20;103271.13;5076623;28;20199;-69
2022/01/13 00:07:30;;;;;;;36.17;18.57;;;;;;;6.85;82.23;103275.34;5073971;28;20309;-69
2022/01/13 00:09:55;;;;;;;43.47;18.97;;;;;;;6.30;85.39;103264.78;5077881;28;20469;-69
2022/01/13 00:12:23;;;;;;;34.60;19.40;;;;;;;6.61;84.84;103269.44;5072901;28;20297;-70
2022/01/13 00:17:30;;;;;;;36.33;19.77;;;;;;;6.36;85.87;103270.38;5057726;28;20463;-69
2022/01/13 00:20:08;;;;;;;40.80;19.10;;;;;;;5.91;86.88;103271.56;5057817;28;20390;-68
2022/01/13 00:25:01;;;;;;;36.00;19.37;;;;;;;6.04;87.62;103281.13;5077796;28;20727;-68
2022/01/13 00:27:29;;;;;;;40.23;20.30;;;;;;;6.13;87.78;103278.25;5078166;28;20215;-70
2022/01/13 00:29:56;;;;;;;49.07;21.20;;;;;;;6.03;87.37;103290.56;5077607;28;20415;-69
2022/01/13 00:32:24;;;;;;;41.27;19.53;;;;;;;6.19;86.87;103299.41;5057926;28;20402;-69
2022/01/13 00:34:49;;;;;;;40.37;20.20;;;;;;;6.16;87.68;103307.88;5058107;28;20633;-68
2022/01/13 00:37:15;;;;;;;37.90;20.67;;;;;;;6.34;86.81;103296.97;5057220;28;20433;-69
2022/01/13 00:39:40;;;;;;;39.23;19.00;;;;;;;6.09;86.58;103296.97;5057448;28;20252;-69
2022/01/13 00:42:06;;;;;;;39.13;20.20;;;;;;;5.98;88.36;103307.50;5074812;28;20304;-69
2022/01/13 00:44:36;;;;;;;38.83;18.67;;;;;;;6.00;88.21;103307.59;5077132;28;20208;-69
2022/01/13 00:47:04;;;;;;;41.07;19.07;;;;;;;6.17;88.81;103311.34;5077711;28;20203;-70
2022/01/13 00:49:29;;;;;;;44.80;18.20;;;;;;;6.22;88.31;103316.09;5059798;28;20424;-69
2022/01/13 00:51:56;;;;;;;52.00;21.03;;;;;;;6.49;86.76;103323.91;5057662;28;20441;-69
2022/01/13 00:54:21;;;;;;;41.47;19.23;;;;;;;6.37;87.13;103310.13;5058453;28;20224;-70
2022/01/13 00:56:47;;;;;;;47.17;20.37;;;;;;;6.16;88.15;103312.16;5077450;28;20429;-69
2022/01/13 00:59:14;;;;;;;36.33;19.80;;;;;;;6.01;89.27;103307.72;5078910;28;20173;-68
2022/01/13 01:01:44;;;;;;;45.77;22.10;;;;;;;6.58;86.99;103300.34;5080870;28;20191;-68
2022/01/13 01:04:10;;;;;;;43.73;20.57;;;;;;;6.34;87.72;103304.75;5081242;28;20465;-68
2022/01/13 01:06:36;;;;;;;46.43;21.73;;;;;;;6.45;87.56;103303.78;5061097;28;20434;-68
2022/01/13 01:09:01;;;;;;;54.90;20.40;;;;;;;6.49;87.11;103300.59;5061075;28;20211;-68
2022/01/13 01:11:27;;;;;;;48.83;20.50;;;;;;;6.20;88.07;103291.75;5065155;28;20422;-68
2022/01/13 01:13:55;;;;;;;39.23;18.90;;;;;;;6.08;88.84;103296.09;5081113;28;20165;-68
2022/01/13 01:16:21;;;;;;;45.80;20.73;;;;;;;6.09;89.20;103286.63;5085020;28;20200;-68
2022/01/13 01:21:33;;;;;;;51.40;21.47;;;;;;;6.05;88.53;103268.28;5083943;28;20398;-68
2022/01/13 01:24:16;;;;;;;48.33;21.17;;;;;;;6.29;88.18;103275.97;5081345;28;20818;-69
2022/01/13 01:26:46;;;;;;;48.67;22.20;;;;;;;6.46;88.62;103274.50;5080441;28;20643;-68
2022/01/13 01:29:33;;;;;;;42.27;20.87;;;;;;;6.24;88.29;103266.97;5065725;28;20470;-68
2022/01/13 01:32:00;;;;;;;47.10;21.77;;;;;;;6.29;88.57;103262.09;5060455;28;20475;-68
2022/01/13 01:36:55;;;;;;;57.10;24.07;;;;;;;6.08;89.47;103259.84;5059309;28;20494;-68
2022/01/13 01:39:20;;;;;;;51.77;22.43;;;;;;;6.07;88.82;103251.19;5073978;28;20459;-69
2022/01/13 01:41:48;;;;;;;53.87;22.97;;;;;;;6.17;89.04;103255.28;5063211;28;20836;-69
2022/01/13 01:44:36;;;;;;;56.10;23.30;;;;;;;6.46;87.55;103266.72;5080192;28;20415;-68
2022/01/13 01:47:02;;;;;;;61.80;24.53;;;;;;;6.18;88.20;103259.69;5080180;28;20411;-69
2022/01/13 01:49:28;;;;;;;61.47;25.60;;;;;;;6.32;88.45;103260.59;5076212;28;20814;-68
2022/01/13 01:51:55;;;;;;;69.73;26.40;;;;;;;6.46;88.00;103250.28;5063404;28;20427;-69
2022/01/13 01:54:21;;;;;;;51.73;23.93;;;;;;;6.19;88.88;103252.78;5059818;28;20217;-69
2022/01/13 01:56:47;;;;;;;63.73;23.93;;;;;;;6.34;89.54;103255.53;5059785;28;20475;-68
2022/01/13 01:59:15;;;;;;;53.97;24.37;;;;;;;6.03;89.89;103245.66;5060208;28;20179;-69
2022/01/13 02:01:42;;;;;;;62.40;26.67;;;;;;;6.46;88.63;103247.69;5069193;28;20427;-70
2022/01/13 02:04:07;;;;;;;60.90;24.40;;;;;;;6.16;89.60;103240.53;5063106;28;20946;-70
2022/01/13 02:06:35;;;;;;;61.90;24.00;;;;;;;6.04;90.69;103238.00;5060216;28;20404;-69
2022/01/13 02:09:00;;;;;;;58.80;24.33;;;;;;;6.38;88.57;103229.91;5059908;28;20250;-69
2022/01/13 02:11:27;;;;;;;49.13;23.50;;;;;;;6.21;89.99;103227.88;5065813;28;20434;-69
2022/01/13 02:13:56;;;;;;;62.73;24.73;;;;;;;6.22;89.48;103228.00;5078627;28;20173;-69
2022/01/13 02:18:56;;;;;;;66.40;24.60;;;;;;;6.16;89.53;103243.13;5079876;28;20808;-71
2022/01/13 02:21:24;;;;;;;66.53;27.07;;;;;;;6.43;88.62;103232.84;5076936;28;20390;-69
2022/01/13 02:23:49;;;;;;;67.63;24.83;;;;;;;6.14;89.00;103223.09;5079339;28;20462;-69
2022/01/13 02:26:14;;;;;;;73.60;27.77;;;;;;;6.10;90.29;103227.16;5079865;28;20453;-69
2022/01/13 02:28:41;;;;;;;90.27;26.17;;;;;;;6.39;89.30;103217.88;5079434;28;20191;-69
2022/01/13 02:31:06;;;;;;;59.57;24.80;;;;;;;6.29;89.52;103212.84;5077693;28;20246;-68
2022/01/13 02:33:31;;;;;;;63.03;24.27;;;;;;;5.62;91.41;103210.91;5059318;28;20406;-69
2022/01/13 02:35:57;;;;;;;76.10;25.90;;;;;;;6.32;90.22;103207.88;5059182;28;20235;-69
2022/01/13 02:38:22;;;;;;;60.27;25.87;;;;;;;6.42;89.04;103206.81;5061239;28;20857;-69
2022/01/13 02:40:55;;;;;;;68.00;24.17;;;;;;;6.17;89.87;103219.03;5079616;28;20161;-69
2022/01/13 02:43:21;;;;;;;66.80;24.37;;;;;;;6.29;89.51;103229.31;5062350;28;20205;-69
2022/01/13 02:46:06;;;;;;;67.87;24.07;;;;;;;6.49;88.23;103221.97;5059048;28;20435;-69
2022/01/13 02:48:32;;;;;;;64.07;25.27;;;;;;;6.52;88.95;103228.25;5065168;28;20168;-69
2022/01/13 02:50:59;;;;;;;73.80;25.97;;;;;;;6.53;88.21;103216.19;5079122;28;20528;-69
2022/01/13 02:53:24;;;;;;;62.70;25.87;;;;;;;6.74;87.32;103214.13;5078293;28;20474;-69
2022/01/13 02:55:50;;;;;;;89.10;27.20;;;;;;;6.63;87.83;103210.84;5078428;28;20415;-69
2022/01/13 02:58:16;;;;;;;53.67;23.83;;;;;;;6.53;88.48;103208.41;5074340;28;20169;-69
2022/01/13 03:00:42;;;;;;;59.90;23.50;;;;;;;6.58;88.63;103207.03;5057990;28;20866;-68
2022/01/13 03:03:08;;;;;;;62.53;23.93;;;;;;;6.61;87.74;103212.41;5058517;28;20408;-69
2022/01/13 03:05:37;;;;;;;54.70;23.77;;;;;;;6.88;87.17;103208.13;5062513;28;20423;-68
2022/01/13 03:08:04;;;;;;;58.20;24.23;;;;;;;6.56;87.71;103206.94;5077628;28;20187;-68
2022/01/13 03:10:29;;;;;;;44.30;21.27;;;;;;;6.48;88.59;103194.25;5077639;28;20447;-68
2022/01/13 03:12:56;;;;;;;49.07;22.53;;;;;;;6.58;88.59;103199.25;5078995;28;20431;-69
2022/01/13 03:15:22;;;;;;;50.43;23.00;;;;;;;6.98;86.91;103188.88;5078388;28;20176;-68
2022/01/13 03:17:47;;;;;;;54.40;23.87;;;;;;;6.73;87.54;103194.19;5077738;28;20437;-69
2022/01/13 03:20:12;;;;;;;49.17;22.60;;;;;;;6.70;88.44;103186.22;5078856;28;20168;-69
2022/01/13 03:22:38;;;;;;;53.83;23.27;;;;;;;6.85;87.08;103196.69;5077722;28;20222;-70
2022/01/13 03:25:04;;;;;;;52.93;25.17;;;;;;;6.74;87.48;103190.78;5078205;28;20172;-69
2022/01/13 03:27:34;;;;;;;53.07;23.63;;;;;;;6.83;87.50;103196.59;5070191;28;20219;-69
2022/01/13 03:30:02;;;;;;;54.73;23.80;;;;;;;6.97;86.95;103204.31;5058573;28;20420;-69
2022/01/13 03:32:27;;;;;;;53.70;24.33;;;;;;;6.80;86.29;103211.03;5058139;28;20818;-69
2022/01/13 03:34:52;;;;;;;57.20;25.70;;;;;;;6.85;87.25;103212.22;5058882;28;20415;-69
2022/01/13 03:37:18;;;;;;;53.53;24.57;;;;;;;6.72;88.29;103211.44;5070559;28;20204;-69
2022/01/13 03:39:43;;;;;;;50.20;22.93;;;;;;;6.64;88.31;103217.78;5080027;28;20248;-69
2022/01/13 03:42:08;;;;;;;49.40;23.43;;;;;;;7.12;86.21;103205.31;5078453;28;20205;-69
2022/01/13 03:44:34;;;;;;;48.30;23.07;;;;;;;6.64;87.50;103215.19;5078481;28;20440;-68
2022/01/13 03:47:02;;;;;;;44.63;23.23;;;;;;;6.26;90.14;103226.50;5073694;28;20173;-68
2022/01/13 03:49:28;;;;;;;45.80;22.57;;;;;;;6.67;88.35;103212.81;5061260;28;20223;-69
2022/01/13 03:51:58;;;;;;;46.90;22.00;;;;;;;6.64;88.42;103215.19;5059883;28;20387;-68
2022/01/13 03:54:33;;;;;;;45.70;22.03;;;;;;;6.63;88.59;103210.84;5058085;28;20221;-68
2022/01/13 03:57:42;;;;;;;47.00;23.30;;;;;;;6.85;87.81;103218.31;5057949;28;20699;-68
2022/01/13 04:00:47;;;;;;;42.83;21.27;;;;;;;6.47;88.33;103218.38;5068856;28;20496;-68
2022/01/13 04:03:12;;;;;;;38.50;18.63;;;;;;;6.45;89.46;103197.53;5077994;28;20381;-69
2022/01/13 04:06:03;;;;;;;36.03;18.90;;;;;;;6.85;87.69;103199.28;5078060;28;20418;-69
2022/01/13 04:08:30;;;;;;;42.33;20.47;;;;;;;6.68;88.01;103186.09;5077865;28;20169;-69
2022/01/13 04:11:11;;;;;;;38.10;19.23;;;;;;;6.97;86.99;103173.19;5077227;28;20407;-69
2022/01/13 04:16:11;;;;;;;42.07;20.50;;;;;;;6.76;88.55;103177.94;5077990;28;20450;-69
2022/01/13 04:18:37;;;;;;;38.77;18.57;;;;;;;6.40;88.84;103173.94;5079447;28;20389;-69
2022/01/13 04:21:02;;;;;;;38.07;21.20;;;;;;;6.72;88.47;103175.16;5080671;28;20382;-69
2022/01/13 04:23:27;;;;;;;43.93;20.50;;;;;;;6.54;88.86;103176.53;5079156;28;20199;-70
2022/01/13 04:25:52;;;;;;;46.67;22.07;;;;;;;6.49;89.22;103180.50;5079409;28;20173;-69
2022/01/13 04:28:25;;;;;;;37.30;20.17;;;;;;;6.58;88.40;103182.00;5072261;28;20177;-69
2022/01/13 04:30:53;;;;;;;41.30;20.67;;;;;;;6.93;86.93;103173.81;5058084;28;20547;-69
2022/01/13 04:33:18;;;;;;;40.00;22.03;;;;;;;7.05;86.69;103177.22;5057742;28;20516;-69
2022/01/13 04:35:44;;;;;;;47.07;22.17;;;;;;;6.75;88.10;103184.78;5061439;28;20491;-69
2022/01/13 04:38:09;;;;;;;46.77;22.80;;;;;;;6.64;88.40;103181.50;5061756;28;20199;-68
2022/01/13 04:40:36;;;;;;;42.20;21.17;;;;;;;7.28;86.30;103177.72;5071018;28;20177;-69
2022/01/13 04:43:01;;;;;;;45.10;21.60;;;;;;;6.72;86.98;103174.22;5065368;28;20280;-70
2022/01/13 04:45:27;;;;;;;47.43;21.43;;;;;;;7.00;86.60;103173.41;5081600;28;20780;-69
2022/01/13 04:47:54;;;;;;;42.43;21.03;;;;;;;6.50;89.15;103172.81;5081251;28;20169;-69
2022/01/13 04:50:22;;;;;;;40.47;19.13;;;;;;;6.65;89.21;103172.94;5081434;28;20556;-69
2022/01/13 04:52:47;;;;;;;30.90;19.60;;;;;;;7.05;86.71;103166.84;5081573;28;20843;-69
2022/01/13 04:55:20;;;;;;;36.23;20.67;;;;;;;6.79;86.86;103172.94;5069674;28;20472;-69
2022/01/13 04:57:46;;;;;;;38.63;21.77;;;;;;;6.66;88.14;103150.53;5081043;28;20593;-69
2022/01/13 05:00:11;;;;;;;40.30;19.97;;;;;;;6.45;88.81;103162.97;5081439;28;20389;-69
2022/01/13 05:02:37;;;;;;;40.13;21.13;;;;;;;6.17;90.15;103162.03;5075648;28;20169;-69
2022/01/13 05:05:02;;;;;;;40.83;19.60;;;;;;;6.63;88.50;103148.63;5060923;28;20170;-69
2022/01/13 05:07:28;;;;;;;44.23;20.60;;;;;;;6.48;89.56;103147.59;5061110;28;20459;-69
2022/01/13 05:09:53;;;;;;;43.77;20.87;;;;;;;6.70;89.05;103153.41;5060958;28;20260;-69
2022/01/13 05:12:18;;;;;;;39.20;21.90;;;;;;;6.50;88.90;103148.63;5080884;28;20173;-69
2022/01/13 05:14:47;;;;;;;41.73;21.53;;;;;;;6.73;88.44;103151.00;5081051;28;20523;-70
2022/01/13 05:17:34;;;;;;;49.70;20.97;;;;;;;6.67;88.46;103149.69;5080318;28;20193;-69
2022/01/13 05:20:13;;;;;;;43.90;20.60;;;;;;;6.94;88.15;103147.09;5080634;28;20386;-69
2022/01/13 05:22:38;;;;;;;42.97;19.40;;;;;;;6.71;89.37;103137.06;5060729;28;20438;-69
2022/01/13 05:25:04;;;;;;;45.93;21.47;;;;;;;6.89;87.51;103131.25;5060607;28;20476;-68
2022/01/13 05:27:30;;;;;;;40.03;20.10;;;;;;;6.82;88.50;103129.03;5060947;28;20197;-69
2022/01/13 05:29:55;;;;;;;40.57;18.83;;;;;;;6.86;87.77;103121.56;5060500;28;20659;-69
2022/01/13 05:32:20;;;;;;;40.17;18.63;;;;;;;6.47;89.24;103127.66;5060174;28;20231;-68
2022/01/13 05:34:46;;;;;;;47.23;20.90;;;;;;;6.99;87.61;103130.13;5061905;28;20166;-69
2022/01/13 05:37:11;;;;;;;53.70;22.03;;;;;;;6.34;89.82;103134.66;5060227;28;20206;-69
2022/01/13 05:39:37;;;;;;;36.17;20.03;;;;;;;6.73;88.25;103135.44;5060305;28;20166;-69
2022/01/13 05:42:02;;;;;;;44.60;20.43;;;;;;;6.83;88.86;103136.03;5077760;28;20630;-69
2022/01/13 05:44:27;;;;;;;39.57;20.17;;;;;;;6.67;89.34;103142.84;5079800;28;20237;-69
2022/01/13 05:46:53;;;;;;;41.77;20.67;;;;;;;6.83;88.34;103136.03;5079533;28;20173;-70
2022/01/13 05:49:18;;;;;;;45.67;20.50;;;;;;;6.80;88.24;103125.47;5070035;28;20169;-70
2022/01/13 05:51:43;;;;;;;42.67;20.40;;;;;;;6.65;89.05;103130.56;5066929;28;20227;-69
2022/01/13 05:54:09;;;;;;;39.57;20.67;;;;;;;6.87;87.90;103133.75;5059862;28;20255;-70
2022/01/13 05:56:34;;;;;;;46.30;20.00;;;;;;;6.79;89.55;103121.97;5060144;28;20229;-70
2022/01/13 05:58:59;;;;;;;43.43;20.10;;;;;;;6.77;88.77;103125.28;5059948;28;20220;-69
2022/01/13 06:01:25;;;;;;;43.40;20.70;;;;;;;6.73;88.49;103125.06;5072128;28;20492;-69
2022/01/13 06:03:50;;;;;;;49.70;22.00;;;;;;;6.96;87.93;103128.22;5060089;28;20184;-69
2022/01/13 06:06:15;;;;;;;42.23;19.50;;;;;;;6.80;88.08;103130.66;5059673;28;20480;-69
2022/01/13 06:08:41;;;;;;;40.27;20.40;;;;;;;7.16;86.76;103126.00;5059776;28;20197;-68
2022/01/13 06:11:06;;;;;;;45.53;20.10;;;;;;;6.68;88.68;103136.84;5059976;28;20175;-68
2022/01/13 06:13:31;;;;;;;43.17;21.23;;;;;;;7.02;87.80;103123.44;5060537;28;20412;-69
2022/01/13 06:15:56;;;;;;;41.00;20.33;;;;;;;7.37;85.86;103135.13;5059532;28;20177;-69
2022/01/13 06:18:25;;;;;;;48.80;22.27;;;;;;;7.13;87.20;103123.19;5061631;28;20205;-70
2022/01/13 06:20:50;;;;;;;38.17;20.80;;;;;;;6.64;87.95;103123.59;5073510;28;20231;-69
2022/01/13 06:23:17;;;;;;;42.20;22.40;;;;;;;6.85;88.23;103126.66;5078159;28;20419;-68
2022/01/13 06:25:43;;;;;;;41.70;21.37;;;;;;;6.98;87.19;103123.13;5079174;28;20411;-67
2022/01/13 06:28:08;;;;;;;39.90;20.53;;;;;;;7.41;85.30;103123.19;5072388;28;20449;-69
2022/01/13 06:30:34;;;;;;;47.90;21.13;;;;;;;7.11;86.23;103130.00;5078669;28;20193;-69
2022/01/13 06:32:59;;;;;;;38.90;21.13;;;;;;;6.94;87.20;103129.84;5079098;28;20165;-68
2022/01/13 06:35:24;;;;;;;39.80;20.60;;;;;;;6.78;87.72;103132.25;5078017;28;20489;-69
2022/01/13 06:37:50;;;;;;;41.20;21.13;;;;;;;6.90;88.44;103123.56;5078687;28;20526;-69
2022/01/13 06:40:15;;;;;;;45.60;20.63;;;;;;;7.01;86.76;103126.81;5078215;28;20567;-69
2022/01/13 06:42:41;;;;;;;56.70;23.33;;;;;;;6.98;87.31;103118.88;5077541;28;20184;-69
2022/01/13 06:45:07;;;;;;;36.63;20.40;;;;;;;7.52;85.59;103111.78;5069552;28;20636;-69
2022/01/13 06:47:33;;;;;;;41.80;20.27;;;;;;;6.86;87.11;103128.44;5059779;28;20528;-69
2022/01/13 06:49:58;;;;;;;36.07;19.43;;;;;;;7.16;87.33;103113.91;5078052;28;20419;-69
2022/01/13 06:52:23;;;;;;;36.83;20.43;;;;;;;7.02;87.10;103125.13;5077993;28;20169;-69
2022/01/13 06:54:49;;;;;;;43.57;20.67;;;;;;;7.24;86.10;103128.25;5076809;28;20235;-69
2022/01/13 06:57:14;;;;;;;47.90;21.90;;;;;;;7.24;86.05;103129.97;5079932;28;20216;-68
2022/01/13 06:59:40;;;;;;;37.07;20.30;;;;;;;7.48;84.37;103134.84;5070069;28;20177;-70
2022/01/13 07:02:05;;;;;;;35.47;20.37;;;;;;;7.48;84.81;103142.63;5059654;28;20260;-69
2022/01/13 07:04:30;;;;;;;32.40;17.87;;;;;;;6.87;86.12;103146.72;5058639;28;20192;-70
2022/01/13 07:06:56;;;;;;;43.37;20.33;;;;;;;7.40;85.05;103136.97;5059082;28;20535;-69
2022/01/13 07:09:21;;;;;;;36.53;19.40;;;;;;;6.99;85.40;103145.69;5058679;28;20177;-67
2022/01/13 07:11:47;;;;;;;32.50;18.13;;;;;;;7.46;83.40;103141.66;5064987;28;20209;-69
2022/01/13 07:14:13;;;;;;;32.10;18.00;;;;;;;7.06;85.12;103141.00;5078013;28;20195;-69
2022/01/13 07:16:39;;;;;;;33.60;19.17;;;;;;;7.34;82.99;103150.47;5071878;28;20208;-69
2022/01/13 07:19:05;;;;;;;30.23;16.73;;;;;;;7.17;85.22;103153.72;5058436;28;20177;-68
2022/01/13 07:21:31;;;;;;;32.90;16.80;;;;;;;7.13;85.20;103163.03;5074224;28;20414;-69
2022/01/13 07:23:57;;;;;;;33.93;16.33;;;;;;;7.04;85.25;103154.66;5074522;28;20228;-69
2022/01/13 07:26:22;;;;;;;32.67;18.30;;;;;;;7.58;82.97;103156.28;5082325;28;20414;-69
2022/01/13 07:28:47;;;;;;;33.50;18.10;;;;;;;7.50;83.74;103156.63;5075616;28;20185;-69
2022/01/13 07:31:14;;;;;;;33.10;17.53;;;;;;;7.43;83.09;103173.50;5078013;28;20283;-70
2022/01/13 07:33:40;;;;;;;32.27;18.27;;;;;;;7.49;83.65;103173.00;5073980;28;20203;-69
2022/01/13 07:36:06;;;;;;;33.30;18.60;;;;;;;7.37;83.86;103175.72;5060261;28;20860;-69
2022/01/13 07:38:31;;;;;;;34.13;18.40;;;;;;;7.45;82.98;103176.19;5063039;28;20381;-69
2022/01/13 07:40:56;;;;;;;29.83;17.20;;;;;;;7.50;83.27;103191.25;5077247;28;20242;-69
2022/01/13 07:43:24;;;;;;;33.33;19.10;;;;;;;7.73;81.93;103187.47;5074960;28;20173;-69
2022/01/13 07:45:50;;;;;;;32.23;18.03;;;;;;;7.35;83.55;103191.19;5070366;28;20500;-68
2022/01/13 07:48:16;;;;;;;32.20;17.73;;;;;;;7.33;83.51;103187.59;5073978;28;20420;-71
2022/01/13 07:50:41;;;;;;;32.10;17.17;;;;;;;7.65;82.09;103195.59;5086400;28;20433;-69
2022/01/13 07:53:07;;;;;;;29.90;18.00;;;;;;;7.35;83.69;103187.72;5099061;28;20407;-68
2022/01/13 07:55:32;;;;;;;30.53;17.60;;;;;;;7.54;83.49;103189.75;5076398;28;20185;-68
2022/01/13 07:57:58;;;;;;;30.30;17.50;;;;;;;7.01;85.01;103188.16;5073753;28;20213;-70
2022/01/13 08:00:23;;;;;;;33.80;18.00;;;;;;;7.24;84.32;103187.03;5068188;28;20178;-68
2022/01/13 08:02:48;;;;;;;31.63;18.20;;;;;;;6.89;84.63;103189.19;5076279;28;20192;-69
2022/01/13 08:05:14;;;;;;;33.63;18.87;;;;;;;7.10;85.05;103191.34;5074695;28;20540;-69
2022/01/13 08:07:39;;;;;;;31.60;18.40;;;;;;;7.56;83.20;103190.72;5078585;28;20177;-69
2022/01/13 08:10:05;;;;;;;32.53;18.63;;;;;;;7.73;81.01;103195.25;5081230;28;20179;-69
2022/01/13 08:12:30;;;;;;;29.27;16.67;;;;;;;7.43;82.85;103212.44;5082116;28;20181;-70
2022/01/13 08:14:56;;;;;;;27.43;16.67;;;;;;;7.61;82.80;103214.38;5081268;28;20287;-69
2022/01/13 08:20:08;;;;;;;31.40;18.10;;;;;;;7.48;82.12;103212.72;5074731;28;20190;-68
2022/01/13 08:22:33;;;;;;;32.27;18.00;;;;;;;7.80;82.39;103211.22;5081500;28;20401;-68
2022/01/13 08:24:59;;;;;;;34.80;18.53;;;;;;;6.89;83.47;103214.22;5076268;28;20448;-69
2022/01/13 08:27:24;;;;;;;36.70;18.10;;;;;;;7.71;81.33;103222.84;5068533;28;20185;-69
2022/01/13 08:29:50;;;;;;;32.73;16.70;;;;;;;7.32;82.97;103221.22;5073137;28;20192;-70
2022/01/13 08:32:15;;;;;;;32.60;18.90;;;;;;;7.39;82.68;103215.66;5077897;28;20165;-70
2022/01/13 08:34:41;;;;;;;31.37;17.47;;;;;;;7.19;83.65;103236.03;5076954;28;20230;-70
2022/01/13 08:37:06;;;;;;;29.27;18.30;;;;;;;7.45;82.65;103216.00;5081427;28;20355;-71
2022/01/13 08:39:38;;;;;;;32.60;19.50;;;;;;;7.14;83.63;103210.59;5080376;28;20176;-71
2022/01/13 08:42:04;;;;;;;35.53;19.00;;;;;;;7.14;84.12;103215.78;5081364;28;20222;-69
2022/01/13 08:44:29;;;;;;;30.80;19.43;;;;;;;6.79;85.26;103215.28;5081681;28;20395;-70
2022/01/13 08:46:55;;;;;;;31.83;19.60;;;;;;;7.28;84.28;103219.25;5064875;28;20197;-69
2022/01/13 08:49:20;;;;;;;30.40;20.03;;;;;;;7.14;84.85;103211.47;5081395;28;20181;-69
2022/01/13 08:51:46;;;;;;;37.07;20.80;;;;;;;7.24;83.56;103213.88;5081725;28;20542;-69
2022/01/13 08:54:11;;;;;;;34.30;21.70;;;;;;;7.70;81.55;103207.19;5080870;28;20249;-69
2022/01/13 08:56:37;;;;;;;37.83;20.97;;;;;;;7.19;84.32;103209.19;5071816;28;20221;-69
2022/01/13 08:59:03;;;;;;;36.17;21.37;;;;;;;7.47;82.55;103210.91;5081610;28;20165;-69
2022/01/13 09:01:30;;;;;;;35.87;20.13;;;;;;;7.13;84.09;103213.97;5074453;28;20437;-70
2022/01/13 09:03:55;;;;;;;38.97;22.63;;;;;;;7.39;83.13;103213.94;5066263;28;20181;-69
2022/01/13 09:06:20;;;;;;;36.17;21.63;;;;;;;7.41;82.73;103212.34;5080962;28;20419;-69
2022/01/13 09:08:46;;;;;;;42.27;22.40;;;;;;;7.08;84.03;103205.94;5080812;28;20176;-69
2022/01/13 09:11:11;;;;;;;35.93;21.10;;;;;;;7.12;84.95;103202.72;5080759;28;20176;-69
2022/01/13 09:13:38;;;;;;;36.33;21.47;;;;;;;7.28;83.60;103191.63;5081007;28;20176;-69
2022/01/13 09:16:13;;;;;;;29.90;18.17;;;;;;;6.92;84.29;103193.66;5079738;28;20267;-68
2022/01/13 09:21:23;;;;;;;37.07;20.40;;;;;;;7.19;84.35;103191.94;5080371;28;20673;-69
2022/01/13 09:23:49;;;;;;;30.77;18.67;;;;;;;7.15;85.77;103197.72;5080853;28;20415;-70
2022/01/13 09:26:14;;;;;;;35.23;19.47;;;;;;;7.11;84.55;103189.66;5084008;28;20425;-70
2022/01/13 09:28:39;;;;;;;28.67;18.10;;;;;;;6.96;85.53;103187.88;5077508;28;20259;-72
2022/01/13 09:31:05;;;;;;;31.43;18.87;;;;;;;6.55;86.52;103180.94;5078109;28;20192;-71
2022/01/13 09:33:31;;;;;;;35.73;18.07;;;;;;;6.64;87.29;103173.72;5080503;28;20169;-71
2022/01/13 09:35:57;;;;;;;43.13;21.27;;;;;;;6.94;86.56;103180.78;5078459;28;20177;-70
2022/01/13 09:38:22;;;;;;;34.53;18.47;;;;;;;6.65;86.70;103172.03;5081092;28;20197;-71
2022/01/13 09:40:52;;;;;;;28.20;17.50;;;;;;;6.31;87.96;103175.91;5073522;28;20276;-70
2022/01/13 09:43:18;;;;;;;35.53;18.10;;;;;;;6.74;86.51;103170.94;5080061;28;20218;-72
2022/01/13 09:45:43;;;;;;;45.73;25.43;;;;;;;6.80;87.19;103169.53;5079383;28;20434;-68
2022/01/13 09:48:08;;;;;;;29.03;17.03;;;;;;;6.70;87.34;103170.66;5080011;28;20426;-69
2022/01/13 09:50:33;;;;;;;27.97;17.50;;;;;;;6.97;85.64;103161.16;5079673;28;20184;-69
2022/01/13 09:52:59;;;;;;;29.10;17.07;;;;;;;6.68;87.21;103167.94;5080135;28;20191;-69
2022/01/13 09:55:24;;;;;;;29.80;18.53;;;;;;;6.76;86.37;103155.47;5073160;28;20233;-71
2022/01/13 09:57:52;;;;;;;30.97;18.03;;;;;;;6.64;87.34;103155.56;5069898;28;20235;-69
2022/01/13 10:00:21;;;;;;;30.07;16.57;;;;;;;6.98;86.20;103152.59;5077029;28;20179;-70
2022/01/13 10:02:47;;;;;;;30.20;18.50;;;;;;;7.14;85.25;103148.34;5080035;28;20496;-68
2022/01/13 10:05:15;;;;;;;26.10;16.90;;;;;;;7.17;85.63;103154.63;5079800;28;20851;-68
2022/01/13 10:07:42;;;;;;;29.37;15.50;;;;;;;6.57;86.62;103159.47;5070829;28;20174;-68
2022/01/13 10:10:14;;;;;;;28.97;15.30;;;;;;;6.90;86.49;103151.16;5075235;28;20812;-68
2022/01/13 10:12:42;;;;;;;25.20;15.33;;;;;;;7.39;84.44;103161.16;5071141;28;20401;-70
2022/01/13 10:18:11;;;;;;;24.50;16.10;;;;;;;7.15;84.89;103155.34;5083460;28;20466;-70
2022/01/13 10:20:36;;;;;;;28.10;15.63;;;;;;;7.12;84.87;103157.72;5082005;28;20794;-70
2022/01/13 10:23:09;;;;;;;30.10;16.17;;;;;;;7.21;84.68;103160.88;5081291;28;20271;-70
2022/01/13 10:25:40;;;;;;;26.00;16.07;;;;;;;7.01;85.66;103151.84;5081409;28;20169;-69
2022/01/13 10:28:16;;;;;;;27.67;16.57;;;;;;;7.44;85.04;103156.22;5082377;28;20493;-68
2022/01/13 10:30:44;;;;;;;27.33;16.13;;;;;;;7.29;85.26;103151.88;5086476;28;20452;-70
2022/01/13 10:33:24;;;;;;;26.60;15.90;;;;;;;7.22;85.68;103160.09;5082492;28;20413;-73
2022/01/13 10:35:52;;;;;;;28.50;16.83;;;;;;;7.41;84.28;103160.44;5080987;28;20757;-71
2022/01/13 10:38:18;;;;;;;29.03;16.07;;;;;;;7.40;84.05;103158.66;5070280;28;20437;-69
2022/01/13 10:40:47;;;;;;;27.33;17.20;;;;;;;7.45;83.60;103164.09;5078489;28;20447;-71
2022/01/13 10:43:12;;;;;;;27.70;14.13;;;;;;;9.12;85.32;103152.97;5067328;28;20415;-61
2022/01/13 10:45:52;;;;;;;28.00;16.73;;;;;;;7.24;83.23;103155.91;5063599;28;20643;-71
2022/01/13 10:48:22;;;;;;;26.13;15.90;;;;;;;6.78;86.11;103151.31;5079162;28;20403;-71
2022/01/13 10:50:55;;;;;;;26.73;15.90;;;;;;;6.83;86.27;103149.00;5076717;28;20414;-71
2022/01/13 10:53:33;;;;;;;34.97;19.13;;;;;;;7.17;85.70;103152.03;5153252;27;20582;-70
2022/01/13 10:56:01;;;;;;;31.03;17.80;;;;;;;7.18;85.67;103145.13;5113654;27;20513;-69
2022/01/13 10:58:33;;;;;;;33.07;19.43;;;;;;;6.85;85.64;103139.63;5135085;28;20428;-69
2022/01/13 11:01:01;;;;;;;36.60;17.57;;;;;;;6.87;87.47;103143.19;5134585;27;20425;-69
2022/01/13 11:03:29;;;;;;;29.23;16.73;;;;;;;6.91;86.84;103134.81;5134233;28;20468;-69
2022/01/13 11:05:56;;;;;;;29.63;17.10;;;;;;;7.15;85.72;103134.59;5133336;27;20447;-70
2022/01/13 11:08:31;;;;;;;30.07;17.30;;;;;;;6.61;88.64;103138.94;5135806;28;20452;-71
2022/01/13 11:11:01;;;;;;;33.20;15.83;;;;;;;6.88;88.50;103135.50;5121904;27;20865;-71
2022/01/13 11:13:29;;;;;;;27.67;16.13;;;;;;;6.64;88.52;103147.81;5107854;28;20450;-71
2022/01/13 11:15:55;;;;;;;30.30;15.80;;;;;;;6.53;88.70;103151.41;5127777;28;20463;-69
2022/01/13 11:18:23;;;;;;;29.80;17.03;;;;;;;6.91;87.93;103143.50;5119150;28;20469;-70
2022/01/13 11:20:50;;;;;;;30.33;16.73;;;;;;;6.84;88.46;103138.72;5135757;28;20849;-72
2022/01/13 11:23:17;;;;;;;29.07;17.33;;;;;;;7.22;86.77;103140.22;5133247;27;20454;-69
2022/01/13 11:25:44;;;;;;;33.90;17.40;;;;;;;6.62;88.48;103140.75;5107369;28;20437;-71
2022/01/13 11:28:10;;;;;;;33.90;18.70;;;;;;;6.67;87.70;103136.75;5116005;28;20475;-70
2022/01/13 11:30:35;;;;;;;32.13;17.40;;;;;;;6.66;88.67;103122.00;5107357;28;20805;-70
2022/01/13 11:33:00;;;;;;;28.43;16.50;;;;;;;6.71;88.88;103136.13;5136464;28;20202;-71
2022/01/13 11:35:29;;;;;;;28.10;16.60;;;;;;;6.77;87.86;103120.09;5137139;28;20182;-71
2022/01/13 11:37:56;;;;;;;27.10;17.30;;;;;;;7.03;87.06;103124.31;5140211;28;20198;-71
2022/01/13 11:40:31;;;;;;;32.47;16.93;;;;;;;6.92;87.87;103134.03;5141514;28;20478;-70